Time;durP1;ratioP1;P1;durP2;ratioP2;P2;SDS_P1;SDS_P2;PMS_P1;PMS_P2;Temp;Humidity;BMP_temperature;BMP_pressure;BME280_temperature;BME280_humidity;BME280_pressure;Samples;Min_cycle;Max_cycle;Signal;HPM_P1;HPM_P2
2022/09/24 00:00:41;;;;;;;3.53;2.30;;;12.40;99.90;;;;;;5115320;28;20200;-75
2022/09/24 00:03:08;;;;;;;2.70;1.17;;;12.40;99.90;;;;;;5115087;28;20482;-75
2022/09/24 00:05:37;;;;;;;1.20;1.10;;;12.40;99.90;;;;;;5115198;28;20447;-75
2022/09/24 00:08:03;;;;;;;2.03;1.23;;;12.40;99.90;;;;;;5115380;28;20447;-75
2022/09/24 00:10:30;;;;;;;1.30;0.87;;;12.40;99.90;;;;;;5114794;28;20969;-75
2022/09/24 00:12:58;;;;;;;1.43;1.10;;;12.40;99.90;;;;;;5114970;28;20446;-75
2022/09/24 00:15:25;;;;;;;1.60;1.23;;;12.40;99.90;;;;;;5114691;28;20942;-74
2022/09/24 00:17:52;;;;;;;0.70;0.70;;;12.40;99.90;;;;;;5114969;28;20440;-75
2022/09/24 00:20:21;;;;;;;1.10;1.00;;;12.40;99.90;;;;;;5114576;28;20942;-75
2022/09/24 00:22:48;;;;;;;2.70;1.00;;;12.30;99.90;;;;;;5114230;28;20501;-75
2022/09/24 00:28:00;;;;;;;2.07;1.13;;;12.30;99.90;;;;;;5114725;28;20543;-74
2022/09/24 00:30:27;;;;;;;1.47;0.93;;;12.30;99.90;;;;;;5114414;28;20957;-75
2022/09/24 00:32:54;;;;;;;1.70;1.40;;;12.20;99.90;;;;;;5114814;28;20439;-75
2022/09/24 00:35:21;;;;;;;3.30;0.93;;;12.20;99.90;;;;;;5114638;28;20450;-75
2022/09/24 00:37:47;;;;;;;0.97;0.80;;;12.10;99.90;;;;;;5114625;28;20847;-75
2022/09/24 00:40:15;;;;;;;0.88;0.88;;;12.10;99.90;;;;;;5114570;28;20893;-75
2022/09/24 00:42:42;;;;;;;1.00;0.67;;;12.10;99.90;;;;;;5114049;28;20230;-75
2022/09/24 00:45:11;;;;;;;1.77;0.90;;;12.10;99.90;;;;;;5114478;28;20458;-75
2022/09/24 00:47:39;;;;;;;1.25;1.08;;;12.10;99.90;;;;;;5114075;28;20950;-74
2022/09/24 00:50:17;;;;;;;1.17;0.80;;;12.10;99.90;;;;;;5114358;28;20204;-75
2022/09/24 00:52:48;;;;;;;3.10;1.27;;;12.00;99.90;;;;;;5114273;28;20449;-75
2022/09/24 00:55:15;;;;;;;16.33;1.30;;;12.00;99.90;;;;;;5114303;28;20427;-75
2022/09/24 00:57:44;;;;;;;1.40;1.00;;;12.00;99.90;;;;;;5114276;28;20479;-75
2022/09/24 01:00:14;;;;;;;2.10;0.73;;;11.90;99.90;;;;;;5114187;28;20458;-75
2022/09/24 01:02:45;;;;;;;1.57;1.03;;;11.90;99.90;;;;;;5114002;28;20481;-75
2022/09/24 01:05:12;;;;;;;0.70;0.70;;;11.80;99.90;;;;;;5114302;28;20434;-80
2022/09/24 01:07:39;;;;;;;1.33;0.93;;;11.80;99.90;;;;;;5114132;28;20472;-80
2022/09/24 01:10:06;;;;;;;2.13;0.83;;;11.80;99.90;;;;;;5114036;28;20450;-80
2022/09/24 01:12:44;;;;;;;1.27;1.00;;;11.70;99.90;;;;;;5114017;28;20447;-80
2022/09/24 01:15:24;;;;;;;0.57;0.57;;;11.70;99.90;;;;;;5114068;28;20435;-80
2022/09/24 01:17:58;;;;;;;1.20;1.07;;;11.60;99.90;;;;;;5113964;28;20427;-80
2022/09/24 01:20:53;;;;;;;2.47;1.23;;;11.60;99.90;;;;;;5114290;28;20411;-80
2022/09/24 01:23:53;;;;;;;1.70;0.40;;;11.60;99.90;;;;;;5113888;28;20493;-87
2022/09/24 01:26:37;;;;;;;2.13;1.40;;;11.60;99.90;;;;;;5095536;28;20451;-87
2022/09/24 01:29:30;;;;;;;1.00;0.83;;;11.50;99.90;;;;;;5113617;28;20475;-86
2022/09/24 01:32:02;;;;;;;0.90;0.90;;;11.50;99.90;;;;;;5114027;28;20423;-87
2022/09/24 01:34:36;;;;;;;3.23;1.67;;;11.50;99.90;;;;;;5114804;28;20557;-87
2022/09/24 01:37:04;;;;;;;2.60;1.30;;;11.50;99.90;;;;;;5120490;28;20914;-87
2022/09/24 01:39:33;;;;;;;1.00;0.80;;;11.50;99.90;;;;;;5120752;28;20442;-87
2022/09/24 01:42:00;;;;;;;2.33;1.27;;;11.50;99.90;;;;;;5120736;28;20430;-87
2022/09/24 01:44:29;;;;;;;1.00;0.83;;;11.40;99.90;;;;;;5120511;28;20482;-87
2022/09/24 01:46:57;;;;;;;3.63;1.37;;;11.30;99.90;;;;;;5120448;28;20447;-87
2022/09/24 01:49:23;;;;;;;2.10;1.90;;;11.30;99.90;;;;;;5120400;28;20877;-87
2022/09/24 01:51:55;;;;;;;1.70;0.73;;;11.30;99.90;;;;;;5120559;28;20449;-87
2022/09/24 01:54:25;;;;;;;2.17;1.00;;;11.30;99.90;;;;;;5120905;28;20462;-87
2022/09/24 01:56:57;;;;;;;0.90;0.77;;;11.30;99.90;;;;;;5120871;28;20445;-87
2022/09/24 01:59:27;;;;;;;3.10;1.30;;;11.30;99.90;;;;;;5120686;28;20430;-87
2022/09/24 02:02:02;;;;;;;1.80;1.07;;;11.20;99.90;;;;;;5120245;28;20976;-87
2022/09/24 02:04:33;;;;;;;0.80;0.80;;;11.20;99.90;;;;;;5120370;28;20485;-87
2022/09/24 02:07:04;;;;;;;0.83;0.83;;;11.20;99.90;;;;;;5120461;28;20423;-87
2022/09/24 02:09:32;;;;;;;0.80;0.80;;;11.20;99.90;;;;;;5120533;28;20430;-87
2022/09/24 02:12:05;;;;;;;2.30;0.80;;;11.20;99.90;;;;;;5120662;28;20443;-87
2022/09/24 02:14:37;;;;;;;5.25;1.10;;;11.20;99.90;;;;;;5120355;28;20466;-87
2022/09/24 02:17:07;;;;;;;1.27;0.90;;;11.20;99.90;;;;;;5120368;28;20204;-87
2022/09/24 02:19:37;;;;;;;1.90;0.83;;;11.20;99.90;;;;;;5120370;28;20446;-87
2022/09/24 02:22:08;;;;;;;1.17;1.07;;;11.30;99.90;;;;;;5120361;28;20442;-87
2022/09/24 02:24:40;;;;;;;0.77;0.77;;;11.30;99.90;;;;;;5120267;28;20483;-87
2022/09/24 02:27:07;;;;;;;1.40;0.97;;;11.30;99.90;;;;;;5120171;28;20240;-87
2022/09/24 02:29:34;;;;;;;0.90;0.80;;;11.30;99.90;;;;;;5120421;28;20438;-87
2022/09/24 02:32:03;;;;;;;2.20;1.20;;;11.40;99.90;;;;;;5120131;28;20949;-87
2022/09/24 02:34:37;;;;;;;1.27;0.93;;;11.40;99.90;;;;;;5120122;28;20828;-87
2022/09/24 02:37:06;;;;;;;1.03;0.93;;;11.30;99.90;;;;;;5120305;28;20431;-87
2022/09/24 02:39:33;;;;;;;2.43;1.00;;;11.40;99.90;;;;;;5120238;28;20447;-87
2022/09/24 02:42:00;;;;;;;3.33;1.23;;;11.30;99.90;;;;;;5120234;28;20442;-87
2022/09/24 02:44:29;;;;;;;0.88;0.63;;;11.40;99.90;;;;;;5119998;28;20853;-87
2022/09/24 02:46:56;;;;;;;2.20;1.00;;;11.40;99.90;;;;;;5117791;28;20282;-87
2022/09/24 02:49:23;;;;;;;1.33;1.23;;;11.40;99.90;;;;;;5116641;28;20439;-87
2022/09/24 02:51:51;;;;;;;1.20;1.20;;;11.40;99.90;;;;;;5116968;28;20454;-87
2022/09/24 02:54:18;;;;;;;1.80;1.07;;;11.50;99.90;;;;;;5116689;28;20455;-87
2022/09/24 02:56:44;;;;;;;1.70;1.20;;;11.50;99.90;;;;;;5116717;28;20443;-87
2022/09/24 02:59:11;;;;;;;1.20;1.20;;;11.50;99.90;;;;;;5116766;28;20450;-86
2022/09/24 03:01:38;;;;;;;1.00;1.00;;;11.60;99.90;;;;;;5116527;28;20894;-87
2022/09/24 03:04:05;;;;;;;4.97;1.42;;;11.60;99.90;;;;;;5116475;28;20482;-87
2022/09/24 03:06:32;;;;;;;2.20;1.23;;;11.60;99.90;;;;;;5116592;28;20201;-87
2022/09/24 03:09:01;;;;;;;2.40;1.57;;;11.60;99.90;;;;;;5116489;28;20443;-86
2022/09/24 03:11:27;;;;;;;1.08;1.08;;;11.60;99.90;;;;;;5116424;28;20455;-87
2022/09/24 03:13:54;;;;;;;4.77;1.27;;;11.70;99.90;;;;;;5116315;28;20217;-87
2022/09/24 03:16:21;;;;;;;1.60;0.95;;;11.70;99.90;;;;;;5116308;28;20517;-87
2022/09/24 03:18:48;;;;;;;1.70;1.30;;;11.70;99.90;;;;;;5116292;28;20208;-87
2022/09/24 03:21:17;;;;;;;1.23;1.13;;;11.70;99.90;;;;;;5116026;28;20949;-87
2022/09/24 03:23:44;;;;;;;1.40;1.30;;;11.70;99.90;;;;;;5115750;28;21012;-87
2022/09/24 03:26:12;;;;;;;2.07;1.10;;;11.70;99.90;;;;;;5116145;28;20450;-87
2022/09/24 03:28:39;;;;;;;2.03;1.00;;;11.70;99.90;;;;;;5115678;28;20486;-87
2022/09/24 03:31:07;;;;;;;0.90;0.70;;;11.70;99.90;;;;;;5116092;28;20443;-87
2022/09/24 03:33:35;;;;;;;1.43;1.00;;;11.70;99.90;;;;;;5116089;28;20546;-87
2022/09/24 03:36:05;;;;;;;1.33;1.23;;;11.70;99.90;;;;;;5115690;28;20930;-87
2022/09/24 03:38:34;;;;;;;3.70;0.90;;;11.70;99.90;;;;;;5116034;28;20481;-87
2022/09/24 03:41:01;;;;;;;1.33;1.00;;;11.70;99.90;;;;;;5115852;28;20447;-87
2022/09/24 03:43:30;;;;;;;1.20;1.10;;;11.70;99.90;;;;;;5115818;28;20467;-87
2022/09/24 03:45:57;;;;;;;2.53;1.37;;;11.70;99.90;;;;;;5115820;28;20460;-87
2022/09/24 03:48:25;;;;;;;1.43;1.33;;;11.70;99.90;;;;;;5115940;28;20451;-87
2022/09/24 03:50:52;;;;;;;2.73;1.63;;;11.70;99.90;;;;;;5115369;28;20506;-87
2022/09/24 03:53:20;;;;;;;0.83;0.83;;;11.70;99.90;;;;;;5115559;28;20459;-87
2022/09/24 03:55:48;;;;;;;1.53;1.43;;;11.70;99.90;;;;;;5115770;28;20513;-87
2022/09/24 03:58:16;;;;;;;1.73;1.17;;;11.80;99.90;;;;;;5114415;28;20497;-75
2022/09/24 04:00:44;;;;;;;2.07;0.90;;;11.80;99.90;;;;;;5115036;28;20992;-74
2022/09/24 04:03:11;;;;;;;1.27;1.00;;;11.70;99.90;;;;;;5115226;28;20470;-75
2022/09/24 04:05:39;;;;;;;1.08;0.98;;;11.70;99.90;;;;;;5114865;28;20986;-75
2022/09/24 04:08:06;;;;;;;1.80;1.07;;;11.70;99.90;;;;;;5115227;28;20334;-75
2022/09/24 04:10:33;;;;;;;0.90;0.80;;;11.70;99.90;;;;;;5115141;28;20445;-75
2022/09/24 04:13:00;;;;;;;0.93;0.93;;;11.70;99.90;;;;;;5115016;28;20490;-75
2022/09/24 04:15:27;;;;;;;2.53;2.30;;;11.70;99.90;;;;;;5115862;28;20439;-74
2022/09/24 04:17:57;;;;;;;1.57;1.07;;;11.80;99.90;;;;;;5114973;28;20446;-74
2022/09/24 04:20:25;;;;;;;1.80;1.60;;;11.80;99.90;;;;;;5114649;28;20799;-75
2022/09/24 04:22:54;;;;;;;1.43;1.33;;;11.80;99.90;;;;;;5114552;28;20450;-74
2022/09/24 04:25:23;;;;;;;1.80;1.33;;;11.80;99.90;;;;;;5115028;28;20478;-75
2022/09/24 04:27:53;;;;;;;2.33;1.47;;;11.80;99.90;;;;;;5114266;28;20475;-74
2022/09/24 04:30:20;;;;;;;2.23;0.80;;;11.80;99.90;;;;;;5114743;28;20805;-75
2022/09/24 04:32:47;;;;;;;1.00;0.90;;;11.80;99.90;;;;;;5114584;28;20464;-75
2022/09/24 04:35:15;;;;;;;0.70;0.70;;;11.70;99.90;;;;;;5114644;28;20800;-75
2022/09/24 04:37:42;;;;;;;5.47;1.67;;;11.70;99.90;;;;;;5114603;28;20208;-75
2022/09/24 04:40:11;;;;;;;2.50;1.17;;;11.70;99.90;;;;;;5114566;28;20443;-75
2022/09/24 04:42:38;;;;;;;2.83;1.20;;;11.70;99.90;;;;;;5114486;28;20821;-75
2022/09/24 04:45:06;;;;;;;1.20;1.10;;;11.70;99.90;;;;;;5114435;28;20573;-74
2022/09/24 04:47:33;;;;;;;2.50;1.20;;;11.70;99.90;;;;;;5114715;28;20208;-75
2022/09/24 04:50:01;;;;;;;1.10;1.00;;;11.70;99.90;;;;;;5114087;28;20961;-75
2022/09/24 04:52:31;;;;;;;1.48;1.10;;;11.70;99.90;;;;;;5114340;28;20475;-74
2022/09/24 04:54:58;;;;;;;3.47;0.90;;;11.70;99.90;;;;;;5114284;28;20271;-75
2022/09/24 04:57:25;;;;;;;1.17;1.07;;;11.70;99.90;;;;;;5114265;28;20805;-74
2022/09/24 04:59:53;;;;;;;1.70;1.20;;;11.70;99.90;;;;;;5114232;28;20857;-75
2022/09/24 05:02:19;;;;;;;2.30;1.03;;;11.70;99.90;;;;;;5114099;28;20447;-75
2022/09/24 05:04:46;;;;;;;1.13;0.70;;;11.70;99.90;;;;;;5114006;28;20486;-75
2022/09/24 05:07:13;;;;;;;3.20;1.47;;;11.70;99.90;;;;;;5114085;28;20515;-74
2022/09/24 05:09:41;;;;;;;1.38;1.00;;;11.80;99.90;;;;;;5113652;28;20450;-74
2022/09/24 05:12:08;;;;;;;4.27;1.70;;;11.80;99.90;;;;;;5114077;28;20572;-74
2022/09/24 05:14:35;;;;;;;1.90;1.23;;;11.80;99.90;;;;;;5113898;28;20462;-74
2022/09/24 05:17:01;;;;;;;2.03;1.50;;;11.80;99.90;;;;;;5114019;28;20212;-74
2022/09/24 05:19:28;;;;;;;2.00;0.80;;;11.80;99.90;;;;;;5113969;28;20443;-74
2022/09/24 05:21:55;;;;;;;1.67;1.00;;;11.80;99.90;;;;;;5113939;28;20447;-74
2022/09/24 05:24:22;;;;;;;2.00;1.37;;;11.80;99.90;;;;;;5113784;28;20485;-74
2022/09/24 05:29:34;;;;;;;1.43;1.30;;;11.90;99.90;;;;;;5113737;28;20405;-74
2022/09/24 05:32:04;;;;;;;1.10;1.00;;;11.90;99.90;;;;;;5114051;28;20458;-74
2022/09/24 05:34:31;;;;;;;8.43;1.43;;;11.90;99.90;;;;;;5113788;28;20802;-74
2022/09/24 05:36:58;;;;;;;0.80;0.70;;;11.90;99.90;;;;;;5113782;28;20926;-74
2022/09/24 05:39:25;;;;;;;1.83;1.50;;;11.90;99.90;;;;;;5113767;28;20451;-74
2022/09/24 05:41:53;;;;;;;0.80;0.70;;;11.90;99.90;;;;;;5113715;28;20447;-74
2022/09/24 05:44:20;;;;;;;1.70;1.00;;;11.90;99.90;;;;;;5113537;28;20467;-74
2022/09/24 05:46:47;;;;;;;2.23;1.00;;;11.90;99.90;;;;;;5113673;28;20479;-73
2022/09/24 05:49:14;;;;;;;1.83;0.77;;;12.00;99.90;;;;;;5113654;28;20484;-74
2022/09/24 05:51:41;;;;;;;1.23;1.03;;;12.00;99.90;;;;;;5113653;28;20443;-73
2022/09/24 05:54:07;;;;;;;1.07;1.00;;;12.00;99.90;;;;;;5113533;28;20462;-74
2022/09/24 05:56:34;;;;;;;1.40;0.97;;;12.00;99.90;;;;;;5113547;28;20450;-74
2022/09/24 05:59:03;;;;;;;2.40;1.10;;;12.00;99.90;;;;;;5113572;28;20481;-74
2022/09/24 06:01:30;;;;;;;2.60;1.20;;;12.00;99.90;;;;;;5113257;28;20438;-74
2022/09/24 06:03:57;;;;;;;3.80;1.33;;;12.10;99.90;;;;;;5113716;28;20455;-74
2022/09/24 06:06:24;;;;;;;1.97;1.43;;;12.10;99.90;;;;;;5113463;28;20463;-74
2022/09/24 06:08:51;;;;;;;1.45;1.00;;;12.20;99.90;;;;;;5113438;28;20454;-74
2022/09/24 06:11:18;;;;;;;1.70;1.00;;;12.20;99.90;;;;;;5113445;28;20569;-74
2022/09/24 06:13:45;;;;;;;0.70;0.70;;;12.30;99.90;;;;;;5113381;28;20475;-74
2022/09/24 06:16:13;;;;;;;6.37;1.97;;;12.40;99.90;;;;;;5113398;28;20431;-74
2022/09/24 06:18:41;;;;;;;2.47;2.13;;;12.40;99.90;;;;;;5113027;28;20951;-74
2022/09/24 06:21:11;;;;;;;0.77;0.70;;;12.50;99.90;;;;;;5113375;28;20450;-74
2022/09/24 06:23:38;;;;;;;1.63;1.00;;;12.50;99.90;;;;;;5117019;28;20463;-73
2022/09/24 06:26:07;;;;;;;1.10;0.60;;;12.60;99.90;;;;;;5117125;28;20218;-74
2022/09/24 06:28:34;;;;;;;1.52;0.82;;;12.70;99.90;;;;;;5116689;28;20971;-74
2022/09/24 06:31:01;;;;;;;1.33;0.70;;;12.70;99.90;;;;;;5117121;28;20197;-74
2022/09/24 06:33:29;;;;;;;1.73;1.53;;;12.80;99.90;;;;;;5117174;28;20471;-73
2022/09/24 06:36:00;;;;;;;2.00;1.27;;;12.80;99.90;;;;;;5117179;28;20473;-74
2022/09/24 06:38:27;;;;;;;2.00;0.77;;;12.80;99.90;;;;;;5116984;28;20427;-74
2022/09/24 06:40:59;;;;;;;1.53;1.43;;;12.80;99.90;;;;;;5116932;28;20478;-73
2022/09/24 06:43:27;;;;;;;3.80;1.53;;;12.80;99.90;;;;;;5116835;28;20463;-73
2022/09/24 06:45:55;;;;;;;1.70;1.00;;;12.80;99.90;;;;;;5116716;28;20524;-74
2022/09/24 06:48:22;;;;;;;4.00;2.00;;;12.80;99.90;;;;;;5116745;28;20438;-76
2022/09/24 06:50:50;;;;;;;1.50;0.80;;;12.80;99.90;;;;;;5116733;28;20519;-74
2022/09/24 06:53:17;;;;;;;1.50;1.10;;;12.80;99.90;;;;;;5116851;28;20455;-74
2022/09/24 06:55:44;;;;;;;1.90;1.80;;;12.80;99.90;;;;;;5116611;28;20420;-74
2022/09/24 06:58:12;;;;;;;2.27;0.67;;;12.80;99.90;;;;;;5116280;28;20209;-75
2022/09/24 07:00:40;;;;;;;1.33;0.80;;;12.80;99.90;;;;;;5116486;28;20458;-74
2022/09/24 07:03:07;;;;;;;1.70;0.83;;;12.90;99.90;;;;;;5116413;28;20459;-74
2022/09/24 07:05:34;;;;;;;4.83;1.40;;;12.90;99.90;;;;;;5116412;28;20497;-74
2022/09/24 07:08:03;;;;;;;1.25;1.10;;;12.90;99.90;;;;;;5116445;28;20431;-75
2022/09/24 07:10:30;;;;;;;2.40;1.00;;;13.00;99.90;;;;;;5116400;28;20205;-74
2022/09/24 07:12:56;;;;;;;1.40;1.25;;;13.00;99.90;;;;;;5116241;28;20835;-74
2022/09/24 07:15:23;;;;;;;6.37;1.17;;;13.10;99.90;;;;;;5116257;28;20178;-75
2022/09/24 07:17:55;;;;;;;1.80;1.20;;;13.10;99.90;;;;;;5116229;28;20465;-75
2022/09/24 07:20:22;;;;;;;1.00;0.70;;;13.20;99.90;;;;;;5116137;28;20906;-74
2022/09/24 07:22:48;;;;;;;2.10;1.63;;;13.30;99.90;;;;;;5116051;28;20423;-74
2022/09/24 07:25:16;;;;;;;1.90;1.10;;;13.30;99.90;;;;;;5116481;28;20477;-74
2022/09/24 07:27:43;;;;;;;1.10;0.90;;;13.30;99.90;;;;;;5115642;28;20841;-74
2022/09/24 07:30:11;;;;;;;1.70;0.80;;;13.20;99.90;;;;;;5115952;28;20212;-75
2022/09/24 07:32:38;;;;;;;1.23;0.70;;;13.20;99.90;;;;;;5115643;28;20818;-74
2022/09/24 07:35:05;;;;;;;0.87;0.83;;;13.20;99.90;;;;;;5116152;28;20442;-74
2022/09/24 07:37:32;;;;;;;4.30;1.37;;;13.30;99.90;;;;;;5115833;28;20521;-75
2022/09/24 07:39:59;;;;;;;0.73;0.73;;;13.30;99.90;;;;;;5115507;28;20957;-74
2022/09/24 07:42:27;;;;;;;2.10;0.77;;;13.30;99.90;;;;;;5115718;28;20434;-75
2022/09/24 07:44:55;;;;;;;0.90;0.90;;;13.20;99.90;;;;;;5115182;28;20471;-75
2022/09/24 07:47:22;;;;;;;0.83;0.50;;;13.20;99.90;;;;;;5115649;28;20228;-75
2022/09/24 07:49:49;;;;;;;1.63;1.47;;;13.20;99.90;;;;;;5115566;28;20479;-74
2022/09/24 07:52:15;;;;;;;2.20;1.35;;;13.30;99.90;;;;;;5115285;28;20427;-75
2022/09/24 07:54:42;;;;;;;0.77;0.70;;;13.30;99.90;;;;;;5115449;28;20247;-74
2022/09/24 07:57:12;;;;;;;0.90;0.70;;;13.40;99.90;;;;;;5115457;28;20194;-74
2022/09/24 07:59:43;;;;;;;0.77;0.77;;;13.40;99.90;;;;;;5115138;28;20492;-75
2022/09/24 08:02:15;;;;;;;2.10;1.40;;;13.50;99.90;;;;;;5115377;28;20435;-74
2022/09/24 08:04:42;;;;;;;0.80;0.80;;;13.60;99.90;;;;;;5115266;28;20516;-74
2022/09/24 08:07:10;;;;;;;0.97;0.80;;;13.70;99.90;;;;;;5115405;28;20479;-75
2022/09/24 08:09:37;;;;;;;1.00;0.90;;;13.70;99.90;;;;;;5115115;28;20479;-75
2022/09/24 08:12:04;;;;;;;2.10;1.00;;;13.60;99.90;;;;;;5115118;28;20447;-75
2022/09/24 08:14:31;;;;;;;4.63;0.87;;;13.50;99.90;;;;;;5114778;28;20835;-75
2022/09/24 08:17:00;;;;;;;3.30;1.17;;;13.40;99.90;;;;;;5114696;28;20439;-75
2022/09/24 08:19:29;;;;;;;0.63;0.57;;;13.40;99.90;;;;;;5114656;28;20462;-75
2022/09/24 08:21:59;;;;;;;1.83;0.70;;;13.30;99.90;;;;;;5115225;28;20447;-77
2022/09/24 08:24:26;;;;;;;1.97;0.70;;;13.20;99.90;;;;;;5114843;28;20992;-78
2022/09/24 08:26:52;;;;;;;0.97;0.73;;;13.10;99.90;;;;;;5114564;28;20479;-78
2022/09/24 08:29:19;;;;;;;2.15;0.80;;;13.10;99.90;;;;;;5114492;28;20424;-78
2022/09/24 08:31:46;;;;;;;2.00;0.73;;;13.10;99.90;;;;;;5114704;28;20201;-78
2022/09/24 08:34:14;;;;;;;2.70;1.27;;;13.10;99.90;;;;;;5114603;28;20463;-78
2022/09/24 08:36:41;;;;;;;2.00;0.70;;;13.10;99.90;;;;;;5114646;28;20434;-78
2022/09/24 08:39:08;;;;;;;1.93;0.67;;;13.10;99.90;;;;;;5114612;28;20457;-78
2022/09/24 08:41:49;;;;;;;1.00;0.90;;;13.00;99.90;;;;;;5114281;28;20442;-78
2022/09/24 08:47:25;;;;;;;1.40;0.60;;;13.00;99.90;;;;;;5113279;28;20995;-78
2022/09/24 08:50:14;;;;;;;2.10;0.80;;;13.00;99.90;;;;;;5114352;28;20448;-78
2022/09/24 08:52:59;;;;;;;1.07;0.60;;;13.10;99.90;;;;;;5114318;28;20427;-78
2022/09/24 08:55:32;;;;;;;3.23;1.33;;;13.10;99.90;;;;;;5113955;28;20423;-78
2022/09/24 08:58:06;;;;;;;1.50;1.20;;;13.10;99.90;;;;;;5114215;28;20439;-79
2022/09/24 09:00:39;;;;;;;3.10;1.37;;;13.10;99.90;;;;;;5114487;28;20439;-78
2022/09/24 09:03:12;;;;;;;1.07;0.70;;;13.10;99.90;;;;;;5114065;28;20471;-79
2022/09/24 09:05:52;;;;;;;1.00;0.77;;;13.10;99.90;;;;;;5114127;28;20478;-79
2022/09/24 09:08:29;;;;;;;1.30;0.80;;;13.10;99.90;;;;;;5114135;28;20441;-82
2022/09/24 09:11:00;;;;;;;0.77;0.77;;;13.10;99.90;;;;;;5114325;28;20463;-78
2022/09/24 09:13:32;;;;;;;0.73;0.73;;;13.20;99.90;;;;;;5113952;28;20458;-78
2022/09/24 09:16:04;;;;;;;1.37;0.60;;;13.20;99.90;;;;;;5114032;28;20182;-78
2022/09/24 09:18:36;;;;;;;1.58;1.33;;;13.20;99.90;;;;;;5113987;28;20510;-78
2022/09/24 09:21:12;;;;;;;0.80;0.50;;;13.20;99.90;;;;;;5113947;28;20513;-78
2022/09/24 09:23:45;;;;;;;0.90;0.90;;;13.20;99.90;;;;;;5113845;28;20984;-77
2022/09/24 09:26:12;;;;;;;0.90;0.70;;;13.30;99.90;;;;;;5113547;28;20961;-78
2022/09/24 09:28:39;;;;;;;0.87;0.67;;;13.20;99.90;;;;;;5113498;28;20481;-79
2022/09/24 09:31:17;;;;;;;1.27;0.67;;;13.30;99.90;;;;;;5113859;28;20447;-79
2022/09/24 09:34:00;;;;;;;1.77;1.23;;;13.20;99.90;;;;;;5113763;28;20478;-81
2022/09/24 09:36:42;;;;;;;0.57;0.57;;;13.30;99.90;;;;;;5113838;28;20792;-79
2022/09/24 09:39:22;;;;;;;0.97;0.97;;;13.30;99.90;;;;;;5113872;28;20431;-79
2022/09/24 09:41:56;;;;;;;0.87;0.87;;;13.40;99.90;;;;;;5113777;28;20442;-78
2022/09/24 09:44:25;;;;;;;0.63;0.60;;;13.50;99.90;;;;;;5113658;28;20466;-79
2022/09/24 09:46:57;;;;;;;0.60;0.57;;;13.50;99.90;;;;;;5113570;28;20478;-79
2022/09/24 09:49:27;;;;;;;1.70;0.93;;;13.60;99.90;;;;;;5113388;28;20431;-79
2022/09/24 09:51:57;;;;;;;0.70;0.70;;;13.70;99.90;;;;;;5113381;28;20433;-79
2022/09/24 09:54:36;;;;;;;0.90;0.80;;;13.80;99.90;;;;;;5113216;28;20463;-79
2022/09/24 09:57:03;;;;;;;1.87;0.60;;;13.80;99.90;;;;;;5116638;28;20428;-78
2022/09/24 09:59:33;;;;;;;0.90;0.43;;;13.90;99.90;;;;;;5117735;28;20451;-83
2022/09/24 10:02:00;;;;;;;1.38;0.73;;;13.90;99.90;;;;;;5117382;28;20546;-84
2022/09/24 10:04:36;;;;;;;0.53;0.40;;;13.90;99.90;;;;;;5117596;28;20221;-84
2022/09/24 10:07:09;;;;;;;0.90;0.60;;;13.80;99.90;;;;;;5117626;28;20466;-84
2022/09/24 10:09:37;;;;;;;5.00;1.20;;;13.80;99.90;;;;;;5117581;28;20442;-84
2022/09/24 10:12:09;;;;;;;1.33;0.67;;;13.80;99.90;;;;;;5117492;28;20851;-83
2022/09/24 10:14:35;;;;;;;0.80;0.80;;;13.80;99.90;;;;;;5117331;28;20970;-83
2022/09/24 10:17:04;;;;;;;1.60;1.15;;;13.70;99.90;;;;;;5117385;28;20435;-83
2022/09/24 10:19:34;;;;;;;1.27;1.17;;;13.60;99.90;;;;;;5117593;28;20201;-83
2022/09/24 10:22:14;;;;;;;0.93;0.70;;;13.60;99.90;;;;;;5117346;28;20454;-84
2022/09/24 10:24:42;;;;;;;0.83;0.80;;;13.50;99.90;;;;;;5117268;28;20466;-85
2022/09/24 10:27:14;;;;;;;1.33;0.70;;;13.50;99.90;;;;;;5117012;28;20482;-83
2022/09/24 10:32:29;;;;;;;0.88;0.50;;;13.50;99.90;;;;;;5117117;28;20471;-83
2022/09/24 10:34:57;;;;;;;0.60;0.60;;;13.50;99.90;;;;;;5116773;28;20250;-83
2022/09/24 10:37:25;;;;;;;0.87;0.57;;;13.50;99.90;;;;;;5116951;28;20431;-83
2022/09/24 10:39:59;;;;;;;0.97;0.60;;;13.50;99.90;;;;;;5116944;28;20451;-83
2022/09/24 10:42:28;;;;;;;1.20;0.77;;;13.50;99.90;;;;;;5116583;28;20458;-83
2022/09/24 10:44:59;;;;;;;0.80;0.80;;;13.60;99.90;;;;;;5116855;28;20467;-81
2022/09/24 10:47:31;;;;;;;1.27;0.70;;;13.60;99.90;;;;;;5116487;28;20465;-80
2022/09/24 10:50:20;;;;;;;1.07;0.70;;;13.70;99.90;;;;;;5116832;28;20767;-80
2022/09/24 10:52:53;;;;;;;1.03;0.50;;;13.80;99.90;;;;;;5116753;28;20431;-80
2022/09/24 10:55:32;;;;;;;1.13;1.00;;;13.90;99.90;;;;;;5116456;28;20523;-80
2022/09/24 10:58:03;;;;;;;1.57;0.90;;;14.00;99.90;;;;;;5116762;28;20435;-80
2022/09/24 11:00:39;;;;;;;1.07;0.67;;;14.30;99.90;;;;;;5116469;28;20796;-79
2022/09/24 11:03:45;;;;;;;0.50;0.50;;;14.40;99.90;;;;;;5116752;28;21078;-76
2022/09/24 11:06:19;;;;;;;2.33;1.10;;;14.50;99.90;;;;;;5034152;28;20470;-78
2022/09/24 11:09:07;;;;;;;1.50;0.67;;;14.50;99.90;;;;;;5033335;28;20454;-78
2022/09/24 11:11:45;;;;;;;1.33;1.13;;;14.50;99.90;;;;;;5089911;28;20503;-78
2022/09/24 11:14:25;;;;;;;0.90;0.77;;;14.50;99.90;;;;;;5115949;28;20474;-78
2022/09/24 11:17:21;;;;;;;1.33;1.20;;;14.50;99.90;;;;;;5116237;28;20431;-78
2022/09/24 11:20:11;;;;;;;0.60;0.60;;;14.40;99.90;;;;;;5095103;28;20530;-79
2022/09/24 11:22:53;;;;;;;2.70;0.77;;;14.50;99.90;;;;;;5116194;28;20431;-78
2022/09/24 11:25:36;;;;;;;1.70;0.90;;;14.50;99.90;;;;;;5116449;28;20454;-78
2022/09/24 11:28:18;;;;;;;0.60;0.60;;;14.60;99.90;;;;;;5115661;28;20483;-79
2022/09/24 11:30:56;;;;;;;1.17;0.60;;;14.70;99.90;;;;;;5116599;28;20938;-79
2022/09/24 11:33:35;;;;;;;1.33;1.13;;;14.80;99.90;;;;;;5115748;28;20978;-78
2022/09/24 11:36:23;;;;;;;1.00;0.80;;;14.80;99.90;;;;;;5115635;28;20530;-78
2022/09/24 11:39:09;;;;;;;1.10;0.67;;;14.90;99.90;;;;;;5116239;28;20523;-79
2022/09/24 11:41:48;;;;;;;1.02;0.73;;;14.90;99.90;;;;;;5116115;28;20423;-79
2022/09/24 11:44:50;;;;;;;1.53;0.80;;;15.00;99.90;;;;;;5115703;28;20584;-83
2022/09/24 11:47:26;;;;;;;0.60;0.60;;;15.00;99.90;;;;;;5115231;28;20492;-83
2022/09/24 11:50:06;;;;;;;1.20;0.80;;;15.00;99.90;;;;;;5115698;28;20563;-83
2022/09/24 11:52:38;;;;;;;2.47;1.00;;;15.00;99.90;;;;;;5115605;28;20461;-83
2022/09/24 11:55:13;;;;;;;1.63;0.90;;;15.00;99.90;;;;;;5115491;28;20554;-83
2022/09/24 11:57:47;;;;;;;0.60;0.50;;;15.00;99.90;;;;;;5115497;28;20427;-83
2022/09/24 12:00:16;;;;;;;1.20;1.10;;;15.00;99.90;;;;;;5115413;28;20436;-83
2022/09/24 12:02:47;;;;;;;1.03;0.53;;;15.00;99.90;;;;;;5115325;28;20534;-84
2022/09/24 12:05:22;;;;;;;2.27;0.83;;;15.00;99.90;;;;;;5115008;28;20435;-83
2022/09/24 12:07:54;;;;;;;1.53;1.43;;;15.00;99.90;;;;;;5115180;28;20992;-83
2022/09/24 12:10:33;;;;;;;3.90;1.13;;;15.00;99.90;;;;;;5115122;28;20435;-83
2022/09/24 12:13:12;;;;;;;0.67;0.67;;;15.00;99.90;;;;;;5115341;28;20431;-83
2022/09/24 12:15:48;;;;;;;1.00;0.87;;;15.00;99.90;;;;;;5115394;28;20427;-83
2022/09/24 12:18:21;;;;;;;2.77;2.23;;;15.00;99.90;;;;;;5114852;28;20415;-83
2022/09/24 12:20:51;;;;;;;1.95;1.80;;;15.00;99.90;;;;;;5114294;28;20427;-84
2022/09/24 12:23:23;;;;;;;1.20;1.10;;;15.00;99.90;;;;;;5114983;28;20232;-84
2022/09/24 12:25:52;;;;;;;2.00;0.93;;;14.90;99.90;;;;;;5114626;28;20926;-83
2022/09/24 12:34:04;;;;;;;1.00;0.87;;;14.90;99.90;;;;;;5114772;28;20811;-84
2022/09/24 12:36:49;;;;;;;1.77;1.67;;;14.90;99.90;;;;;;5114762;28;20419;-79
2022/09/24 12:39:20;;;;;;;1.23;0.90;;;14.90;99.90;;;;;;5114443;28;20894;-83
2022/09/24 12:41:50;;;;;;;1.83;0.60;;;14.80;99.90;;;;;;5114422;28;20416;-84
2022/09/24 12:44:23;;;;;;;0.80;0.70;;;14.90;99.90;;;;;;5114576;28;20528;-84
2022/09/24 12:46:52;;;;;;;0.88;0.88;;;14.80;99.90;;;;;;5114488;28;20470;-84
2022/09/24 12:49:29;;;;;;;1.02;1.02;;;14.90;99.90;;;;;;5114508;28;20201;-84
2022/09/24 12:51:58;;;;;;;1.42;0.88;;;14.80;99.90;;;;;;5115124;28;20327;-84
2022/09/24 12:54:29;;;;;;;2.10;1.00;;;14.90;99.90;;;;;;5114182;28;20225;-84
2022/09/24 12:57:07;;;;;;;1.30;0.82;;;14.90;99.90;;;;;;5114363;28;20426;-84
2022/09/24 12:59:47;;;;;;;1.58;1.45;;;14.90;99.90;;;;;;5114313;28;20658;-84
2022/09/24 13:02:16;;;;;;;1.70;0.90;;;14.90;99.90;;;;;;5114882;28;20190;-84
2022/09/24 13:04:49;;;;;;;2.73;0.90;;;14.90;99.90;;;;;;5115358;28;20463;-84
2022/09/24 13:07:30;;;;;;;2.50;1.00;;;15.00;99.90;;;;;;5114268;28;20467;-85
2022/09/24 13:09:57;;;;;;;0.53;0.53;;;15.00;99.90;;;;;;5114067;28;20457;-87
2022/09/24 13:12:32;;;;;;;1.27;0.50;;;14.90;99.90;;;;;;5115018;28;20442;-88
2022/09/24 13:15:03;;;;;;;0.70;0.50;;;14.90;99.90;;;;;;5114862;28;20969;-86
2022/09/24 13:17:31;;;;;;;1.87;1.07;;;14.90;99.90;;;;;;5113966;28;20433;-86
2022/09/24 13:20:03;;;;;;;0.77;0.60;;;14.80;99.90;;;;;;5114250;28;20437;-85
2022/09/24 13:22:32;;;;;;;1.43;0.80;;;14.80;99.90;;;;;;5114193;28;20522;-85